»·PEaware :: SWA5150 KBUR-KSJC

SWA5150 :: KBUR-KSJC

FLIGHT INFORMATION

Flight Status: Arrived
Operator:
Southwest Airlines
More flights by this operator :: More flights under this callsign
Pilot: Anonymous 17686 (17686)
Aircraft: BOEING 737-200
(B732)
More flights by this aircraft type
Origin: KBUR Bob Hope-Burbank
United States
Destination: KSJC Mineta San Jose Intl
United States
More flights between these airports :: More routes between these airports
Route: VNY3 AVE ROBIE4
File this flight plan on PilotEdge
Remarks:
Altitude:
(Current/Filed)
30,000ft
Speed:
(Current/Filed)
450kts
Departed: 10-Oct-18 09:47 AM
Arrived: 10-Oct-18 10:40 AM
Distance/Time
Traveled:
258nm/0:53
Distance/Time
To Go:
Arrived

Flight Plot

Page will automatically refresh every two minutes.

Flight plan parsing failed; only flown route is shown


Map Options




Map Legend


Flown Route
Filed Route
Departure Airport
Arrival Airport
Navaid (VOR, NDB)
Fix

Horizontal Profiles

Position Reports

Time Latitude Longitude Heading Altitude Ground
Speed
10-Oct-18 09:21 34.196795 -118.351053 180 786ft 0kts
10-Oct-18 09:22 34.196795 -118.351053 180 786ft 0kts
10-Oct-18 09:23 34.196795 -118.351053 180 786ft 0kts
10-Oct-18 09:24 34.196795 -118.351053 180 786ft 0kts
10-Oct-18 09:25 34.196795 -118.351053 180 786ft 0kts
10-Oct-18 09:26 34.196795 -118.351053 180 786ft 0kts
10-Oct-18 09:27 34.196795 -118.351053 180 786ft 0kts
10-Oct-18 09:28 34.196795 -118.351053 180 786ft 0kts
10-Oct-18 09:29 34.196795 -118.351053 180 786ft 0kts
10-Oct-18 09:30 34.196795 -118.351053 180 786ft 0kts
10-Oct-18 09:31 34.196795 -118.351053 180 786ft 0kts
10-Oct-18 09:32 34.196795 -118.351053 180 786ft 0kts
10-Oct-18 09:33 34.196795 -118.351053 180 786ft 0kts
10-Oct-18 09:34 34.196795 -118.351053 180 786ft 0kts
10-Oct-18 09:35 34.196795 -118.351053 180 786ft 0kts
10-Oct-18 09:36 34.196795 -118.351053 180 786ft 0kts
10-Oct-18 09:37 34.196795 -118.351053 180 786ft 0kts
10-Oct-18 09:38 34.196927 -118.351053 180 786ft 2kts
10-Oct-18 09:39 34.197155 -118.350630 271 786ft 2kts
10-Oct-18 09:40 34.197149 -118.350311 271 786ft 0kts
10-Oct-18 09:41 34.197149 -118.350311 271 786ft 0kts
10-Oct-18 09:42 34.197150 -118.350378 271 786ft 4kts
10-Oct-18 09:43 34.198250 -118.355203 346 786ft 17kts
10-Oct-18 09:44 34.202463 -118.356392 347 786ft 13kts
10-Oct-18 09:45 34.205877 -118.357312 346 786ft 11kts
10-Oct-18 09:46 34.209031 -118.358192 346 786ft 8kts
10-Oct-18 09:47 34.210956 -118.358716 346 786ft 8kts
10-Oct-18 09:48 34.211828 -118.359920 244 786ft 9kts
10-Oct-18 09:49 34.189467 -118.354449 172 1082ft 174kts
10-Oct-18 09:50 34.141601 -118.391443 225 3420ft 243kts
10-Oct-18 09:51 34.088671 -118.454937 225 3984ft 268kts
10-Oct-18 09:52 34.087917 -118.528617 330 4300ft 249kts
10-Oct-18 09:53 34.157481 -118.542921 352 6799ft 261kts
10-Oct-18 09:54 34.242994 -118.554441 352 10060ft 272kts
10-Oct-18 09:55 34.303936 -118.579822 331 11616ft 299kts
10-Oct-18 09:56 34.376334 -118.629457 330 14024ft 303kts
10-Oct-18 09:57 34.449635 -118.679087 330 16093ft 310kts
10-Oct-18 09:58 34.527351 -118.724931 335 17942ft 317kts
10-Oct-18 09:59 34.609445 -118.766883 336 19541ft 326kts
10-Oct-18 10:00 34.699878 -118.808232 337 20605ft 358kts
10-Oct-18 10:01 34.792311 -118.855523 329 22283ft 365kts
10-Oct-18 10:02 34.877572 -118.922414 327 23733ft 373kts
10-Oct-18 10:03 34.963803 -118.995876 321 24866ft 385kts
10-Oct-18 10:04 35.051982 -119.072519 322 25952ft 395kts
10-Oct-18 10:05 35.143689 -119.148129 324 27027ft 402kts
10-Oct-18 10:06 35.238702 -119.221336 325 27968ft 408kts
10-Oct-18 10:07 35.335181 -119.295634 325 28805ft 413kts
10-Oct-18 10:08 35.432511 -119.371850 324 29558ft 417kts
10-Oct-18 10:09 35.530169 -119.450125 324 29919ft 429kts
10-Oct-18 10:10 35.587489 -119.569679 271 29935ft 432kts
10-Oct-18 10:11 35.587555 -119.719973 269 29922ft 446kts
10-Oct-18 10:12 35.626999 -119.861269 296 29909ft 455kts
10-Oct-18 10:13 35.653761 -120.011571 295 29922ft 456kts
10-Oct-18 10:14 35.701115 -120.150023 289 29908ft 425kts
10-Oct-18 10:15 35.743280 -120.280975 291 29909ft 402kts
10-Oct-18 10:16 35.784970 -120.405032 291 29914ft 387kts
10-Oct-18 10:17 35.826904 -120.529711 291 29918ft 400kts
10-Oct-18 10:18 35.870243 -120.657493 291 29935ft 409kts
10-Oct-18 10:19 35.913621 -120.788292 290 29939ft 416kts
10-Oct-18 10:20 35.955259 -120.916837 290 28575ft 396kts
10-Oct-18 10:21 36.004839 -121.034266 315 26345ft 388kts
10-Oct-18 10:22 36.086263 -121.117693 318 24289ft 374kts
10-Oct-18 10:23 36.166461 -121.194244 323 22303ft 361kts
10-Oct-18 10:24 36.248288 -121.262192 325 20278ft 351kts
10-Oct-18 10:25 36.326507 -121.324827 325 19921ft 324kts
10-Oct-18 10:26 36.402826 -121.381868 327 19931ft 322kts
10-Oct-18 10:27 36.482176 -121.442007 326 19697ft 340kts
10-Oct-18 10:28 36.560121 -121.508671 320 17860ft 338kts
10-Oct-18 10:29 36.633461 -121.579136 327 15956ft 331kts
10-Oct-18 10:30 36.716284 -121.614413 14 14302ft 311kts
10-Oct-18 10:31 36.795102 -121.590186 1 12161ft 286kts
10-Oct-18 10:32 36.873860 -121.583670 1 10057ft 281kts
10-Oct-18 10:33 36.947542 -121.597352 333 8304ft 266kts
10-Oct-18 10:34 37.013706 -121.636366 333 7292ft 262kts
10-Oct-18 10:35 37.079416 -121.675245 332 6250ft 261kts
10-Oct-18 10:36 37.139661 -121.719629 322 4994ft 251kts
10-Oct-18 10:37 37.193200 -121.768462 323 4335ft 230kts
10-Oct-18 10:38 37.243785 -121.815687 323 3341ft 228kts
10-Oct-18 10:39 37.289306 -121.856147 325 1712ft 180kts
10-Oct-18 10:40 37.325131 -121.889566 320 889ft 143kts
10-Oct-18 10:41 37.355299 -121.921819 319 152ft 141kts
10-Oct-18 10:42 37.371498 -121.938118 39 71ft 17kts
10-Oct-18 10:43 37.372737 -121.936413 50 71ft 0kts
10-Oct-18 10:44 37.371757 -121.934974 139 71ft 19kts
10-Oct-18 10:45 37.370282 -121.931537 63 71ft 6kts
10-Oct-18 10:46 37.370321 -121.931443 61 71ft 0kts
10-Oct-18 10:47 37.370321 -121.931443 61 71ft 0kts
10-Oct-18 10:48 37.370321 -121.931443 61 71ft 0kts

Navigation Log

Ident Type
Flight plan parsing failed, navigation log unavailable